sensor_id;sensor_type;location;lat;lon;timestamp;P1;durP1;ratioP1;P2;durP2;ratioP2
8574;SDS011;4325;42.520;27.448;2023-01-10T00:01:21;51.20;;;27.80;;
8574;SDS011;4325;42.520;27.448;2023-01-10T00:03:48;72.17;;;29.13;;
8574;SDS011;4325;42.520;27.448;2023-01-10T00:06:15;55.17;;;28.27;;
8574;SDS011;4325;42.520;27.448;2023-01-10T00:08:43;57.77;;;28.43;;
8574;SDS011;4325;42.520;27.448;2023-01-10T00:11:10;63.83;;;28.30;;
8574;SDS011;4325;42.520;27.448;2023-01-10T00:13:51;98.57;;;28.53;;
8574;SDS011;4325;42.520;27.448;2023-01-10T00:16:18;63.80;;;29.43;;
8574;SDS011;4325;42.520;27.448;2023-01-10T00:18:45;147.97;;;28.43;;
8574;SDS011;4325;42.520;27.448;2023-01-10T00:21:12;105.60;;;28.30;;
8574;SDS011;4325;42.520;27.448;2023-01-10T00:23:40;124.70;;;28.17;;
8574;SDS011;4325;42.520;27.448;2023-01-10T00:26:08;71.73;;;28.17;;
8574;SDS011;4325;42.520;27.448;2023-01-10T00:28:36;63.90;;;27.53;;
8574;SDS011;4325;42.520;27.448;2023-01-10T00:31:03;59.77;;;28.60;;
8574;SDS011;4325;42.520;27.448;2023-01-10T00:33:30;58.00;;;29.20;;
8574;SDS011;4325;42.520;27.448;2023-01-10T00:35:58;67.80;;;28.07;;
8574;SDS011;4325;42.520;27.448;2023-01-10T00:38:25;67.57;;;28.00;;
8574;SDS011;4325;42.520;27.448;2023-01-10T00:40:52;51.60;;;29.43;;
8574;SDS011;4325;42.520;27.448;2023-01-10T00:43:20;98.97;;;30.63;;
8574;SDS011;4325;42.520;27.448;2023-01-10T00:46:05;53.30;;;29.27;;
8574;SDS011;4325;42.520;27.448;2023-01-10T00:48:31;56.47;;;29.23;;
8574;SDS011;4325;42.520;27.448;2023-01-10T00:50:58;63.33;;;28.67;;
8574;SDS011;4325;42.520;27.448;2023-01-10T00:53:25;55.63;;;29.17;;
8574;SDS011;4325;42.520;27.448;2023-01-10T00:55:52;53.73;;;29.20;;
8574;SDS011;4325;42.520;27.448;2023-01-10T00:58:21;77.17;;;27.70;;
8574;SDS011;4325;42.520;27.448;2023-01-10T01:00:48;54.90;;;28.67;;
8574;SDS011;4325;42.520;27.448;2023-01-10T01:03:15;48.17;;;28.57;;
8574;SDS011;4325;42.520;27.448;2023-01-10T01:05:44;50.47;;;27.70;;
8574;SDS011;4325;42.520;27.448;2023-01-10T01:08:13;53.73;;;29.57;;
8574;SDS011;4325;42.520;27.448;2023-01-10T01:10:41;55.33;;;27.60;;
8574;SDS011;4325;42.520;27.448;2023-01-10T01:13:08;48.10;;;27.47;;
8574;SDS011;4325;42.520;27.448;2023-01-10T01:15:39;57.93;;;28.70;;
8574;SDS011;4325;42.520;27.448;2023-01-10T01:18:05;49.10;;;28.20;;
8574;SDS011;4325;42.520;27.448;2023-01-10T01:20:33;52.33;;;29.33;;
8574;SDS011;4325;42.520;27.448;2023-01-10T01:23:00;50.90;;;29.63;;
8574;SDS011;4325;42.520;27.448;2023-01-10T01:25:26;50.07;;;30.03;;
8574;SDS011;4325;42.520;27.448;2023-01-10T01:27:53;49.73;;;29.80;;
8574;SDS011;4325;42.520;27.448;2023-01-10T01:30:20;54.93;;;32.10;;
8574;SDS011;4325;42.520;27.448;2023-01-10T01:32:49;50.20;;;30.27;;
8574;SDS011;4325;42.520;27.448;2023-01-10T01:35:15;52.53;;;30.47;;
8574;SDS011;4325;42.520;27.448;2023-01-10T01:37:43;53.23;;;31.10;;
8574;SDS011;4325;42.520;27.448;2023-01-10T01:40:11;49.33;;;30.27;;
8574;SDS011;4325;42.520;27.448;2023-01-10T01:42:39;54.27;;;30.13;;
8574;SDS011;4325;42.520;27.448;2023-01-10T01:45:30;53.17;;;30.87;;
8574;SDS011;4325;42.520;27.448;2023-01-10T01:48:05;50.70;;;31.53;;
8574;SDS011;4325;42.520;27.448;2023-01-10T01:50:55;57.13;;;33.93;;
8574;SDS011;4325;42.520;27.448;2023-01-10T01:53:30;52.60;;;32.00;;
8574;SDS011;4325;42.520;27.448;2023-01-10T01:56:01;53.93;;;30.73;;
8574;SDS011;4325;42.520;27.448;2023-01-10T01:58:31;50.23;;;30.30;;
8574;SDS011;4325;42.520;27.448;2023-01-10T02:01:04;54.30;;;30.53;;
8574;SDS011;4325;42.520;27.448;2023-01-10T02:03:33;51.33;;;30.70;;
8574;SDS011;4325;42.520;27.448;2023-01-10T02:06:01;52.20;;;30.57;;
8574;SDS011;4325;42.520;27.448;2023-01-10T02:08:28;49.80;;;30.63;;
8574;SDS011;4325;42.520;27.448;2023-01-10T02:10:57;46.10;;;29.47;;
8574;SDS011;4325;42.520;27.448;2023-01-10T02:13:32;50.47;;;30.67;;
8574;SDS011;4325;42.520;27.448;2023-01-10T02:16:00;51.63;;;30.43;;
8574;SDS011;4325;42.520;27.448;2023-01-10T02:18:27;48.83;;;29.60;;
8574;SDS011;4325;42.520;27.448;2023-01-10T02:21:02;47.93;;;30.17;;
8574;SDS011;4325;42.520;27.448;2023-01-10T02:32:39;47.17;;;27.67;;
8574;SDS011;4325;42.520;27.448;2023-01-10T02:35:15;48.87;;;28.43;;
8574;SDS011;4325;42.520;27.448;2023-01-10T02:37:52;52.43;;;31.20;;
8574;SDS011;4325;42.520;27.448;2023-01-10T02:40:30;47.87;;;29.90;;
8574;SDS011;4325;42.520;27.448;2023-01-10T02:43:09;48.43;;;29.60;;
8574;SDS011;4325;42.520;27.448;2023-01-10T02:45:40;52.07;;;31.23;;
8574;SDS011;4325;42.520;27.448;2023-01-10T02:48:14;48.97;;;29.63;;
8574;SDS011;4325;42.520;27.448;2023-01-10T02:50:48;50.70;;;29.80;;
8574;SDS011;4325;42.520;27.448;2023-01-10T02:53:19;44.00;;;28.83;;
8574;SDS011;4325;42.520;27.448;2023-01-10T02:56:03;42.60;;;28.83;;
8574;SDS011;4325;42.520;27.448;2023-01-10T02:59:07;48.77;;;28.50;;
8574;SDS011;4325;42.520;27.448;2023-01-10T03:01:46;43.97;;;27.50;;
8574;SDS011;4325;42.520;27.448;2023-01-10T03:04:24;43.07;;;28.37;;
8574;SDS011;4325;42.520;27.448;2023-01-10T03:07:03;42.83;;;26.67;;
8574;SDS011;4325;42.520;27.448;2023-01-10T03:09:39;46.77;;;29.40;;
8574;SDS011;4325;42.520;27.448;2023-01-10T03:12:17;44.93;;;28.13;;
8574;SDS011;4325;42.520;27.448;2023-01-10T03:14:50;45.40;;;29.10;;
8574;SDS011;4325;42.520;27.448;2023-01-10T03:17:19;45.40;;;29.23;;
8574;SDS011;4325;42.520;27.448;2023-01-10T03:19:51;51.10;;;29.90;;
8574;SDS011;4325;42.520;27.448;2023-01-10T03:22:22;45.50;;;29.83;;
8574;SDS011;4325;42.520;27.448;2023-01-10T03:24:51;45.80;;;29.60;;
8574;SDS011;4325;42.520;27.448;2023-01-10T03:27:23;50.73;;;29.60;;
8574;SDS011;4325;42.520;27.448;2023-01-10T03:30:02;44.37;;;29.73;;
8574;SDS011;4325;42.520;27.448;2023-01-10T03:32:36;45.57;;;28.30;;
8574;SDS011;4325;42.520;27.448;2023-01-10T03:35:04;46.00;;;29.30;;
8574;SDS011;4325;42.520;27.448;2023-01-10T03:37:33;54.87;;;30.30;;
8574;SDS011;4325;42.520;27.448;2023-01-10T03:40:07;51.23;;;32.77;;
8574;SDS011;4325;42.520;27.448;2023-01-10T03:42:43;50.53;;;31.20;;
8574;SDS011;4325;42.520;27.448;2023-01-10T03:45:32;46.93;;;30.83;;
8574;SDS011;4325;42.520;27.448;2023-01-10T03:48:06;55.30;;;34.53;;
8574;SDS011;4325;42.520;27.448;2023-01-10T03:50:38;58.00;;;32.83;;
8574;SDS011;4325;42.520;27.448;2023-01-10T03:53:07;60.93;;;37.70;;
8574;SDS011;4325;42.520;27.448;2023-01-10T03:55:37;66.97;;;39.57;;
8574;SDS011;4325;42.520;27.448;2023-01-10T03:58:06;65.80;;;39.83;;
8574;SDS011;4325;42.520;27.448;2023-01-10T04:00:33;66.40;;;39.20;;
8574;SDS011;4325;42.520;27.448;2023-01-10T04:03:00;62.90;;;38.37;;
8574;SDS011;4325;42.520;27.448;2023-01-10T04:05:27;58.77;;;38.70;;
8574;SDS011;4325;42.520;27.448;2023-01-10T04:07:55;69.17;;;39.53;;
8574;SDS011;4325;42.520;27.448;2023-01-10T04:10:22;64.37;;;38.97;;
8574;SDS011;4325;42.520;27.448;2023-01-10T04:12:51;67.43;;;39.17;;
8574;SDS011;4325;42.520;27.448;2023-01-10T04:15:18;63.10;;;38.37;;
8574;SDS011;4325;42.520;27.448;2023-01-10T04:17:46;64.37;;;39.77;;
8574;SDS011;4325;42.520;27.448;2023-01-10T04:20:14;61.97;;;37.70;;
8574;SDS011;4325;42.520;27.448;2023-01-10T04:22:44;65.37;;;38.33;;
8574;SDS011;4325;42.520;27.448;2023-01-10T04:25:15;69.57;;;38.47;;
8574;SDS011;4325;42.520;27.448;2023-01-10T04:27:42;61.63;;;37.83;;
8574;SDS011;4325;42.520;27.448;2023-01-10T04:30:09;66.13;;;39.70;;
8574;SDS011;4325;42.520;27.448;2023-01-10T04:32:36;67.13;;;40.07;;
8574;SDS011;4325;42.520;27.448;2023-01-10T04:35:03;66.63;;;39.67;;
8574;SDS011;4325;42.520;27.448;2023-01-10T04:37:31;71.07;;;40.50;;
8574;SDS011;4325;42.520;27.448;2023-01-10T04:39:58;66.20;;;41.50;;
8574;SDS011;4325;42.520;27.448;2023-01-10T04:42:26;69.20;;;44.07;;
8574;SDS011;4325;42.520;27.448;2023-01-10T04:44:53;68.17;;;42.93;;
8574;SDS011;4325;42.520;27.448;2023-01-10T04:47:19;73.70;;;44.00;;
8574;SDS011;4325;42.520;27.448;2023-01-10T04:49:47;67.53;;;42.70;;
8574;SDS011;4325;42.520;27.448;2023-01-10T04:52:13;66.23;;;43.17;;
8574;SDS011;4325;42.520;27.448;2023-01-10T04:54:40;61.27;;;36.73;;
8574;SDS011;4325;42.520;27.448;2023-01-10T04:57:07;59.40;;;35.80;;
8574;SDS011;4325;42.520;27.448;2023-01-10T04:59:35;56.53;;;36.73;;
8574;SDS011;4325;42.520;27.448;2023-01-10T05:02:02;61.23;;;37.23;;
8574;SDS011;4325;42.520;27.448;2023-01-10T05:04:29;62.37;;;38.63;;
8574;SDS011;4325;42.520;27.448;2023-01-10T05:06:56;54.80;;;37.10;;
8574;SDS011;4325;42.520;27.448;2023-01-10T05:09:23;62.90;;;39.83;;
8574;SDS011;4325;42.520;27.448;2023-01-10T05:11:50;68.40;;;42.50;;
8574;SDS011;4325;42.520;27.448;2023-01-10T05:14:16;60.63;;;37.33;;
8574;SDS011;4325;42.520;27.448;2023-01-10T05:16:45;62.83;;;39.37;;
8574;SDS011;4325;42.520;27.448;2023-01-10T05:19:11;61.63;;;38.77;;
8574;SDS011;4325;42.520;27.448;2023-01-10T05:21:38;63.57;;;38.83;;
8574;SDS011;4325;42.520;27.448;2023-01-10T05:24:05;66.73;;;39.53;;
8574;SDS011;4325;42.520;27.448;2023-01-10T05:26:32;63.60;;;40.03;;
8574;SDS011;4325;42.520;27.448;2023-01-10T05:28:59;54.47;;;37.27;;
8574;SDS011;4325;42.520;27.448;2023-01-10T05:31:26;59.13;;;39.87;;
8574;SDS011;4325;42.520;27.448;2023-01-10T05:33:54;58.90;;;37.83;;
8574;SDS011;4325;42.520;27.448;2023-01-10T05:36:21;61.07;;;38.60;;
8574;SDS011;4325;42.520;27.448;2023-01-10T05:38:48;69.00;;;38.83;;
8574;SDS011;4325;42.520;27.448;2023-01-10T05:41:15;70.37;;;38.97;;
8574;SDS011;4325;42.520;27.448;2023-01-10T05:43:42;56.30;;;37.87;;
8574;SDS011;4325;42.520;27.448;2023-01-10T05:46:08;59.93;;;36.57;;
8574;SDS011;4325;42.520;27.448;2023-01-10T05:48:35;58.33;;;37.27;;
8574;SDS011;4325;42.520;27.448;2023-01-10T05:51:04;55.77;;;36.73;;
8574;SDS011;4325;42.520;27.448;2023-01-10T05:53:31;57.80;;;34.43;;
8574;SDS011;4325;42.520;27.448;2023-01-10T05:55:58;54.33;;;35.43;;
8574;SDS011;4325;42.520;27.448;2023-01-10T05:58:26;57.43;;;36.23;;
8574;SDS011;4325;42.520;27.448;2023-01-10T06:00:54;54.67;;;36.33;;
8574;SDS011;4325;42.520;27.448;2023-01-10T06:03:22;57.43;;;34.27;;
8574;SDS011;4325;42.520;27.448;2023-01-10T06:05:50;61.80;;;36.53;;
8574;SDS011;4325;42.520;27.448;2023-01-10T06:08:19;58.23;;;35.60;;
8574;SDS011;4325;42.520;27.448;2023-01-10T06:10:46;53.33;;;36.13;;
8574;SDS011;4325;42.520;27.448;2023-01-10T06:13:13;54.27;;;37.20;;
8574;SDS011;4325;42.520;27.448;2023-01-10T06:15:40;52.87;;;36.77;;
8574;SDS011;4325;42.520;27.448;2023-01-10T06:18:07;56.93;;;33.43;;
8574;SDS011;4325;42.520;27.448;2023-01-10T06:20:34;60.20;;;35.73;;
8574;SDS011;4325;42.520;27.448;2023-01-10T06:23:01;42.73;;;28.23;;
8574;SDS011;4325;42.520;27.448;2023-01-10T06:25:30;47.00;;;31.50;;
8574;SDS011;4325;42.520;27.448;2023-01-10T06:27:58;47.37;;;30.87;;
8574;SDS011;4325;42.520;27.448;2023-01-10T06:30:25;51.03;;;32.50;;
8574;SDS011;4325;42.520;27.448;2023-01-10T06:32:51;71.63;;;49.63;;
8574;SDS011;4325;42.520;27.448;2023-01-10T06:35:18;69.97;;;50.50;;
8574;SDS011;4325;42.520;27.448;2023-01-10T06:37:46;106.93;;;70.20;;
8574;SDS011;4325;42.520;27.448;2023-01-10T06:40:12;92.57;;;66.23;;
8574;SDS011;4325;42.520;27.448;2023-01-10T06:42:41;92.07;;;62.33;;
8574;SDS011;4325;42.520;27.448;2023-01-10T06:45:08;89.17;;;61.23;;
8574;SDS011;4325;42.520;27.448;2023-01-10T06:47:35;101.90;;;64.43;;
8574;SDS011;4325;42.520;27.448;2023-01-10T06:50:03;93.63;;;63.13;;
8574;SDS011;4325;42.520;27.448;2023-01-10T06:52:30;85.33;;;55.53;;
8574;SDS011;4325;42.520;27.448;2023-01-10T06:54:58;87.67;;;60.80;;
8574;SDS011;4325;42.520;27.448;2023-01-10T06:57:24;89.70;;;55.30;;
8574;SDS011;4325;42.520;27.448;2023-01-10T06:59:53;82.50;;;54.67;;
8574;SDS011;4325;42.520;27.448;2023-01-10T07:02:21;80.07;;;51.80;;
8574;SDS011;4325;42.520;27.448;2023-01-10T07:04:48;79.90;;;48.93;;
8574;SDS011;4325;42.520;27.448;2023-01-10T07:07:15;57.37;;;38.97;;
8574;SDS011;4325;42.520;27.448;2023-01-10T07:09:42;59.03;;;37.70;;
8574;SDS011;4325;42.520;27.448;2023-01-10T07:12:09;52.87;;;34.90;;
8574;SDS011;4325;42.520;27.448;2023-01-10T07:14:35;50.80;;;31.13;;
8574;SDS011;4325;42.520;27.448;2023-01-10T07:17:04;47.57;;;30.43;;
8574;SDS011;4325;42.520;27.448;2023-01-10T07:19:31;48.77;;;31.70;;
8574;SDS011;4325;42.520;27.448;2023-01-10T07:21:57;50.10;;;32.00;;
8574;SDS011;4325;42.520;27.448;2023-01-10T07:24:24;45.93;;;31.37;;
8574;SDS011;4325;42.520;27.448;2023-01-10T07:26:53;48.23;;;33.13;;
8574;SDS011;4325;42.520;27.448;2023-01-10T07:29:20;46.93;;;32.40;;
8574;SDS011;4325;42.520;27.448;2023-01-10T07:31:47;41.50;;;31.33;;
8574;SDS011;4325;42.520;27.448;2023-01-10T07:34:15;37.80;;;29.00;;
8574;SDS011;4325;42.520;27.448;2023-01-10T07:36:42;38.00;;;25.67;;
8574;SDS011;4325;42.520;27.448;2023-01-10T07:39:09;40.97;;;29.30;;
8574;SDS011;4325;42.520;27.448;2023-01-10T07:41:36;30.93;;;19.87;;
8574;SDS011;4325;42.520;27.448;2023-01-10T07:44:02;35.33;;;24.73;;
8574;SDS011;4325;42.520;27.448;2023-01-10T07:46:29;35.37;;;27.17;;
8574;SDS011;4325;42.520;27.448;2023-01-10T07:48:56;35.20;;;26.70;;
8574;SDS011;4325;42.520;27.448;2023-01-10T07:51:25;33.50;;;23.23;;
8574;SDS011;4325;42.520;27.448;2023-01-10T07:53:51;34.00;;;22.40;;
8574;SDS011;4325;42.520;27.448;2023-01-10T07:56:18;46.57;;;25.73;;
8574;SDS011;4325;42.520;27.448;2023-01-10T07:58:45;38.20;;;27.23;;
8574;SDS011;4325;42.520;27.448;2023-01-10T08:01:12;46.13;;;27.17;;
8574;SDS011;4325;42.520;27.448;2023-01-10T08:03:39;38.43;;;24.33;;
8574;SDS011;4325;42.520;27.448;2023-01-10T08:06:06;37.13;;;24.43;;
8574;SDS011;4325;42.520;27.448;2023-01-10T08:08:36;36.57;;;21.47;;
8574;SDS011;4325;42.520;27.448;2023-01-10T08:11:04;37.60;;;22.23;;
8574;SDS011;4325;42.520;27.448;2023-01-10T08:13:31;36.07;;;22.37;;
8574;SDS011;4325;42.520;27.448;2023-01-10T08:15:58;37.30;;;19.97;;
8574;SDS011;4325;42.520;27.448;2023-01-10T08:18:25;34.87;;;19.40;;
8574;SDS011;4325;42.520;27.448;2023-01-10T08:20:53;35.57;;;23.30;;
8574;SDS011;4325;42.520;27.448;2023-01-10T08:23:20;23.00;;;18.97;;
8574;SDS011;4325;42.520;27.448;2023-01-10T08:25:49;33.00;;;20.20;;
8574;SDS011;4325;42.520;27.448;2023-01-10T08:28:16;26.87;;;19.40;;
8574;SDS011;4325;42.520;27.448;2023-01-10T08:30:43;27.47;;;19.67;;
8574;SDS011;4325;42.520;27.448;2023-01-10T08:33:10;29.53;;;20.73;;
8574;SDS011;4325;42.520;27.448;2023-01-10T08:35:37;33.70;;;18.97;;
8574;SDS011;4325;42.520;27.448;2023-01-10T08:38:05;26.30;;;17.40;;
8574;SDS011;4325;42.520;27.448;2023-01-10T08:40:32;28.63;;;16.77;;
8574;SDS011;4325;42.520;27.448;2023-01-10T08:43:01;27.00;;;17.60;;
8574;SDS011;4325;42.520;27.448;2023-01-10T08:45:29;24.07;;;15.50;;
8574;SDS011;4325;42.520;27.448;2023-01-10T08:47:56;23.27;;;16.30;;
8574;SDS011;4325;42.520;27.448;2023-01-10T08:50:24;28.43;;;16.83;;
8574;SDS011;4325;42.520;27.448;2023-01-10T08:52:52;29.17;;;17.50;;
8574;SDS011;4325;42.520;27.448;2023-01-10T08:55:19;31.67;;;17.87;;
8574;SDS011;4325;42.520;27.448;2023-01-10T08:57:46;27.80;;;17.07;;
8574;SDS011;4325;42.520;27.448;2023-01-10T09:00:15;27.20;;;17.03;;
8574;SDS011;4325;42.520;27.448;2023-01-10T09:02:42;26.10;;;17.83;;
8574;SDS011;4325;42.520;27.448;2023-01-10T09:05:09;24.13;;;16.90;;
8574;SDS011;4325;42.520;27.448;2023-01-10T09:07:36;22.90;;;16.83;;
8574;SDS011;4325;42.520;27.448;2023-01-10T09:10:05;29.77;;;16.90;;
8574;SDS011;4325;42.520;27.448;2023-01-10T09:12:33;23.33;;;16.73;;
8574;SDS011;4325;42.520;27.448;2023-01-10T09:15:19;27.00;;;18.60;;
8574;SDS011;4325;42.520;27.448;2023-01-10T09:17:46;27.30;;;17.17;;
8574;SDS011;4325;42.520;27.448;2023-01-10T09:20:14;29.77;;;17.33;;
8574;SDS011;4325;42.520;27.448;2023-01-10T09:22:41;30.07;;;18.13;;
8574;SDS011;4325;42.520;27.448;2023-01-10T09:25:08;26.93;;;16.97;;
8574;SDS011;4325;42.520;27.448;2023-01-10T09:27:35;33.23;;;18.87;;
8574;SDS011;4325;42.520;27.448;2023-01-10T09:30:02;28.10;;;17.70;;
8574;SDS011;4325;42.520;27.448;2023-01-10T09:32:31;30.27;;;18.60;;
8574;SDS011;4325;42.520;27.448;2023-01-10T09:34:58;30.10;;;18.10;;
8574;SDS011;4325;42.520;27.448;2023-01-10T09:37:25;29.40;;;17.87;;
8574;SDS011;4325;42.520;27.448;2023-01-10T09:39:52;30.87;;;17.07;;
8574;SDS011;4325;42.520;27.448;2023-01-10T09:42:23;31.40;;;17.57;;
8574;SDS011;4325;42.520;27.448;2023-01-10T09:45:02;28.27;;;18.07;;
8574;SDS011;4325;42.520;27.448;2023-01-10T09:47:40;34.20;;;19.10;;
8574;SDS011;4325;42.520;27.448;2023-01-10T09:50:18;28.27;;;18.60;;
8574;SDS011;4325;42.520;27.448;2023-01-10T09:52:54;33.13;;;17.83;;
8574;SDS011;4325;42.520;27.448;2023-01-10T09:55:29;27.10;;;17.73;;
8574;SDS011;4325;42.520;27.448;2023-01-10T09:57:58;32.93;;;18.53;;
8574;SDS011;4325;42.520;27.448;2023-01-10T10:00:30;32.37;;;18.77;;
8574;SDS011;4325;42.520;27.448;2023-01-10T10:03:05;24.70;;;18.23;;
8574;SDS011;4325;42.520;27.448;2023-01-10T10:05:43;24.40;;;18.60;;
8574;SDS011;4325;42.520;27.448;2023-01-10T10:08:12;26.37;;;17.50;;
8574;SDS011;4325;42.520;27.448;2023-01-10T10:10:53;25.70;;;16.67;;
8574;SDS011;4325;42.520;27.448;2023-01-10T10:13:38;24.27;;;16.70;;
8574;SDS011;4325;42.520;27.448;2023-01-10T10:16:13;24.83;;;15.97;;
8574;SDS011;4325;42.520;27.448;2023-01-10T10:18:54;27.47;;;16.93;;
8574;SDS011;4325;42.520;27.448;2023-01-10T10:21:32;34.20;;;17.57;;
8574;SDS011;4325;42.520;27.448;2023-01-10T10:24:14;22.30;;;16.17;;
8574;SDS011;4325;42.520;27.448;2023-01-10T10:26:54;26.23;;;16.93;;
8574;SDS011;4325;42.520;27.448;2023-01-10T10:32:22;26.97;;;16.57;;
8574;SDS011;4325;42.520;27.448;2023-01-10T10:34:57;25.07;;;15.87;;
8574;SDS011;4325;42.520;27.448;2023-01-10T10:37:29;29.13;;;17.03;;
8574;SDS011;4325;42.520;27.448;2023-01-10T10:40:01;24.63;;;16.60;;
8574;SDS011;4325;42.520;27.448;2023-01-10T10:42:32;31.63;;;16.67;;
8574;SDS011;4325;42.520;27.448;2023-01-10T10:45:04;24.57;;;16.50;;
8574;SDS011;4325;42.520;27.448;2023-01-10T10:47:34;26.27;;;16.43;;
8574;SDS011;4325;42.520;27.448;2023-01-10T10:50:06;29.07;;;15.50;;
8574;SDS011;4325;42.520;27.448;2023-01-10T10:52:43;25.70;;;16.30;;
8574;SDS011;4325;42.520;27.448;2023-01-10T10:55:12;23.03;;;15.07;;
8574;SDS011;4325;42.520;27.448;2023-01-10T10:57:40;33.67;;;15.67;;
8574;SDS011;4325;42.520;27.448;2023-01-10T11:00:12;30.93;;;16.43;;
8574;SDS011;4325;42.520;27.448;2023-01-10T11:02:42;28.30;;;16.30;;
8574;SDS011;4325;42.520;27.448;2023-01-10T11:05:14;24.87;;;15.60;;
8574;SDS011;4325;42.520;27.448;2023-01-10T11:07:45;24.07;;;16.17;;
8574;SDS011;4325;42.520;27.448;2023-01-10T11:10:13;27.83;;;15.17;;
8574;SDS011;4325;42.520;27.448;2023-01-10T11:13:00;22.63;;;14.97;;
8574;SDS011;4325;42.520;27.448;2023-01-10T11:15:39;33.57;;;14.80;;
8574;SDS011;4325;42.520;27.448;2023-01-10T11:18:12;21.30;;;14.73;;
8574;SDS011;4325;42.520;27.448;2023-01-10T11:20:48;24.23;;;14.13;;
8574;SDS011;4325;42.520;27.448;2023-01-10T11:23:32;22.60;;;14.63;;
8574;SDS011;4325;42.520;27.448;2023-01-10T11:26:06;22.50;;;14.43;;
8574;SDS011;4325;42.520;27.448;2023-01-10T11:28:36;19.70;;;13.03;;
8574;SDS011;4325;42.520;27.448;2023-01-10T11:31:04;22.20;;;13.37;;
8574;SDS011;4325;42.520;27.448;2023-01-10T11:33:32;31.10;;;12.23;;
8574;SDS011;4325;42.520;27.448;2023-01-10T11:36:03;22.23;;;10.90;;
8574;SDS011;4325;42.520;27.448;2023-01-10T11:38:31;19.53;;;12.27;;
8574;SDS011;4325;42.520;27.448;2023-01-10T11:40:59;21.70;;;13.03;;
8574;SDS011;4325;42.520;27.448;2023-01-10T11:43:29;17.03;;;12.27;;
8574;SDS011;4325;42.520;27.448;2023-01-10T11:45:59;26.10;;;13.87;;
8574;SDS011;4325;42.520;27.448;2023-01-10T11:51:18;21.67;;;12.30;;
8574;SDS011;4325;42.520;27.448;2023-01-10T11:53:49;23.93;;;12.30;;
8574;SDS011;4325;42.520;27.448;2023-01-10T11:56:23;20.23;;;12.70;;
8574;SDS011;4325;42.520;27.448;2023-01-10T11:58:52;21.30;;;13.13;;
8574;SDS011;4325;42.520;27.448;2023-01-10T12:01:24;17.03;;;10.70;;
8574;SDS011;4325;42.520;27.448;2023-01-10T12:03:53;19.80;;;12.20;;
8574;SDS011;4325;42.520;27.448;2023-01-10T12:06:22;23.77;;;11.03;;
8574;SDS011;4325;42.520;27.448;2023-01-10T12:08:50;22.17;;;10.87;;
8574;SDS011;4325;42.520;27.448;2023-01-10T12:11:24;14.67;;;10.40;;
8574;SDS011;4325;42.520;27.448;2023-01-10T12:13:55;18.73;;;9.60;;
8574;SDS011;4325;42.520;27.448;2023-01-10T12:16:24;17.40;;;10.53;;
8574;SDS011;4325;42.520;27.448;2023-01-10T12:18:53;20.33;;;11.43;;
8574;SDS011;4325;42.520;27.448;2023-01-10T12:21:27;24.93;;;10.67;;
8574;SDS011;4325;42.520;27.448;2023-01-10T12:24:00;21.10;;;10.67;;
8574;SDS011;4325;42.520;27.448;2023-01-10T12:26:31;22.17;;;10.17;;
8574;SDS011;4325;42.520;27.448;2023-01-10T12:29:00;20.20;;;10.17;;
8574;SDS011;4325;42.520;27.448;2023-01-10T12:31:33;16.87;;;10.43;;
8574;SDS011;4325;42.520;27.448;2023-01-10T12:34:07;17.63;;;10.80;;
8574;SDS011;4325;42.520;27.448;2023-01-10T12:36:45;16.07;;;11.27;;
8574;SDS011;4325;42.520;27.448;2023-01-10T12:39:21;29.60;;;12.37;;
8574;SDS011;4325;42.520;27.448;2023-01-10T12:41:51;18.00;;;10.77;;
8574;SDS011;4325;42.520;27.448;2023-01-10T12:44:42;20.13;;;10.63;;
8574;SDS011;4325;42.520;27.448;2023-01-10T12:47:16;23.17;;;11.70;;
8574;SDS011;4325;42.520;27.448;2023-01-10T12:49:49;18.57;;;13.17;;
8574;SDS011;4325;42.520;27.448;2023-01-10T12:52:30;22.00;;;12.43;;
8574;SDS011;4325;42.520;27.448;2023-01-10T12:55:05;23.67;;;12.87;;
8574;SDS011;4325;42.520;27.448;2023-01-10T12:57:34;20.17;;;10.77;;
8574;SDS011;4325;42.520;27.448;2023-01-10T13:00:04;17.33;;;11.27;;
8574;SDS011;4325;42.520;27.448;2023-01-10T13:02:36;24.13;;;12.77;;
8574;SDS011;4325;42.520;27.448;2023-01-10T13:05:12;17.60;;;10.70;;
8574;SDS011;4325;42.520;27.448;2023-01-10T13:07:44;20.33;;;10.77;;
8574;SDS011;4325;42.520;27.448;2023-01-10T13:10:13;15.67;;;10.77;;
8574;SDS011;4325;42.520;27.448;2023-01-10T13:12:43;19.07;;;11.77;;
8574;SDS011;4325;42.520;27.448;2023-01-10T13:15:16;19.33;;;11.30;;
8574;SDS011;4325;42.520;27.448;2023-01-10T13:17:48;18.57;;;10.03;;
8574;SDS011;4325;42.520;27.448;2023-01-10T13:20:26;21.37;;;11.10;;
8574;SDS011;4325;42.520;27.448;2023-01-10T13:22:57;15.77;;;11.07;;
8574;SDS011;4325;42.520;27.448;2023-01-10T13:25:26;18.47;;;10.07;;
8574;SDS011;4325;42.520;27.448;2023-01-10T13:27:55;15.40;;;10.30;;
8574;SDS011;4325;42.520;27.448;2023-01-10T13:30:26;17.07;;;11.03;;
8574;SDS011;4325;42.520;27.448;2023-01-10T13:32:58;16.87;;;10.00;;
8574;SDS011;4325;42.520;27.448;2023-01-10T13:35:34;16.50;;;9.47;;
8574;SDS011;4325;42.520;27.448;2023-01-10T13:38:06;13.03;;;9.47;;
8574;SDS011;4325;42.520;27.448;2023-01-10T13:40:54;18.90;;;9.37;;
8574;SDS011;4325;42.520;27.448;2023-01-10T13:43:37;16.37;;;10.13;;
8574;SDS011;4325;42.520;27.448;2023-01-10T13:46:37;13.23;;;8.93;;
8574;SDS011;4325;42.520;27.448;2023-01-10T13:55:24;13.40;;;9.73;;
8574;SDS011;4325;42.520;27.448;2023-01-10T13:57:54;11.97;;;8.80;;
8574;SDS011;4325;42.520;27.448;2023-01-10T14:00:26;22.00;;;11.47;;
8574;SDS011;4325;42.520;27.448;2023-01-10T14:03:39;15.77;;;9.87;;
8574;SDS011;4325;42.520;27.448;2023-01-10T14:06:17;19.93;;;10.53;;
8574;SDS011;4325;42.520;27.448;2023-01-10T14:08:50;15.70;;;10.57;;
8574;SDS011;4325;42.520;27.448;2023-01-10T14:11:21;19.53;;;11.90;;
8574;SDS011;4325;42.520;27.448;2023-01-10T14:13:50;20.57;;;11.90;;
8574;SDS011;4325;42.520;27.448;2023-01-10T14:16:30;16.30;;;10.43;;
8574;SDS011;4325;42.520;27.448;2023-01-10T14:19:00;18.20;;;9.73;;
8574;SDS011;4325;42.520;27.448;2023-01-10T14:21:29;15.80;;;10.33;;
8574;SDS011;4325;42.520;27.448;2023-01-10T14:23:58;13.63;;;9.57;;
8574;SDS011;4325;42.520;27.448;2023-01-10T14:26:28;16.13;;;10.33;;
8574;SDS011;4325;42.520;27.448;2023-01-10T14:28:58;13.07;;;9.83;;
8574;SDS011;4325;42.520;27.448;2023-01-10T14:31:27;14.77;;;10.20;;
8574;SDS011;4325;42.520;27.448;2023-01-10T14:33:56;15.73;;;10.40;;
8574;SDS011;4325;42.520;27.448;2023-01-10T14:36:28;18.20;;;11.03;;
8574;SDS011;4325;42.520;27.448;2023-01-10T14:38:59;23.17;;;12.10;;
8574;SDS011;4325;42.520;27.448;2023-01-10T14:41:33;19.50;;;11.43;;
8574;SDS011;4325;42.520;27.448;2023-01-10T14:44:05;19.23;;;11.33;;
8574;SDS011;4325;42.520;27.448;2023-01-10T14:46:38;23.93;;;12.10;;
8574;SDS011;4325;42.520;27.448;2023-01-10T14:49:24;22.23;;;11.37;;
8574;SDS011;4325;42.520;27.448;2023-01-10T14:51:52;17.30;;;10.57;;
8574;SDS011;4325;42.520;27.448;2023-01-10T14:54:25;18.80;;;9.90;;
8574;SDS011;4325;42.520;27.448;2023-01-10T14:56:55;14.00;;;9.77;;
8574;SDS011;4325;42.520;27.448;2023-01-10T14:59:23;19.50;;;9.97;;
8574;SDS011;4325;42.520;27.448;2023-01-10T15:01:52;18.73;;;10.77;;
8574;SDS011;4325;42.520;27.448;2023-01-10T15:04:22;21.50;;;10.83;;
8574;SDS011;4325;42.520;27.448;2023-01-10T15:06:53;17.97;;;9.73;;
8574;SDS011;4325;42.520;27.448;2023-01-10T15:09:21;21.53;;;10.03;;
8574;SDS011;4325;42.520;27.448;2023-01-10T15:11:49;16.83;;;9.37;;
8574;SDS011;4325;42.520;27.448;2023-01-10T15:14:19;15.50;;;10.10;;
8574;SDS011;4325;42.520;27.448;2023-01-10T15:16:49;18.73;;;11.00;;